createdAt,value
2019-05-19T00:00:39.188Z,12.32
2019-05-19T00:15:32.697Z,12.27
2019-05-19T00:30:33.767Z,12.26
2019-05-19T00:40:33.072Z,12.15
2019-05-19T00:50:32.709Z,11.94
2019-05-19T01:00:33.361Z,11.99
2019-05-19T01:15:33.387Z,12.07
2019-05-19T01:20:34.305Z,11.91
2019-05-19T01:30:33.287Z,12.02
2019-05-19T01:40:33.086Z,11.80
2019-05-19T01:50:33.056Z,11.90
2019-05-19T02:00:34.289Z,11.98
2019-05-19T02:10:33.575Z,11.90
2019-05-19T02:20:33.914Z,12.27
2019-05-19T02:30:32.581Z,12.55
2019-05-19T02:40:33.977Z,12.49
2019-05-19T02:50:50.989Z,12.41
2019-05-19T03:00:38.300Z,12.03
2019-05-19T03:10:33.727Z,12.08
2019-05-19T03:20:32.599Z,12.26
2019-05-19T03:40:41.232Z,12.43
2019-05-19T03:50:33.086Z,11.81
2019-05-19T04:00:33.212Z,11.40
2019-05-19T04:10:32.649Z,11.72
2019-05-19T04:20:33.117Z,11.62
2019-05-19T04:30:33.664Z,11.17
2019-05-19T04:40:33.073Z,11.24
2019-05-19T04:50:32.674Z,11.37
2019-05-19T05:00:33.690Z,11.59
2019-05-19T05:10:33.815Z,11.85
2019-05-19T05:20:33.639Z,11.87
2019-05-19T05:30:33.136Z,11.65
2019-05-19T05:40:33.552Z,11.73
2019-05-19T05:50:33.073Z,11.55
2019-05-19T06:00:34.765Z,11.77
2019-05-19T06:10:33.146Z,12.09
2019-05-19T06:20:33.207Z,12.15
2019-05-19T06:30:33.447Z,12.43
2019-05-19T06:40:35.660Z,12.41
2019-05-19T06:50:33.171Z,12.84
2019-05-19T07:00:36.767Z,13.11
2019-05-19T07:10:33.152Z,13.64
2019-05-19T07:20:33.653Z,13.78
2019-05-19T07:30:36.698Z,14.12
2019-05-19T07:40:33.606Z,14.49
2019-05-19T07:45:33.179Z,14.52
2019-05-19T07:50:42.908Z,14.49
2019-05-19T07:55:33.697Z,14.60
2019-05-19T08:00:35.338Z,14.82
2019-05-19T08:05:33.773Z,15.01
2019-05-19T08:10:33.172Z,15.05
2019-05-19T08:15:34.702Z,15.14
2019-05-19T08:20:36.455Z,15.13
2019-05-19T08:30:33.294Z,14.75
2019-05-19T08:40:32.895Z,14.77
2019-05-19T08:50:32.856Z,14.74
2019-05-19T08:55:33.760Z,15.01
2019-05-19T09:00:38.241Z,15.34
2019-05-19T09:05:36.795Z,15.47
2019-05-19T09:10:33.831Z,15.60
2019-05-19T09:15:32.331Z,15.81
2019-05-19T09:20:32.827Z,16.08
2019-05-19T09:25:35.624Z,16.02
2019-05-19T09:30:43.325Z,16.06
2019-05-19T09:35:36.247Z,16.33
2019-05-19T09:40:35.349Z,16.97
2019-05-19T09:45:35.839Z,17.33
2019-05-19T09:50:33.180Z,17.21
2019-05-19T09:55:36.781Z,17.31
2019-05-19T10:00:34.049Z,17.81
2019-05-19T10:05:33.759Z,17.39
2019-05-19T10:10:38.626Z,17.22
2019-05-19T10:15:37.772Z,17.30
2019-05-19T10:20:33.161Z,17.44
2019-05-19T10:30:33.249Z,18.29
2019-05-19T10:35:32.743Z,19.21
2019-05-19T10:40:32.736Z,19.29
2019-05-19T10:45:32.859Z,18.88
2019-05-19T10:50:33.198Z,18.36
2019-05-19T10:55:36.463Z,18.25
2019-05-19T11:00:35.447Z,19.23
2019-05-19T11:05:33.301Z,18.90
2019-05-19T11:10:35.256Z,18.91
2019-05-19T11:15:33.232Z,18.88
2019-05-19T11:20:35.682Z,18.40
2019-05-19T11:30:35.573Z,17.65
2019-05-19T11:35:33.141Z,18.29
2019-05-19T11:40:32.185Z,18.35
2019-05-19T11:45:33.252Z,18.92
2019-05-19T11:50:33.798Z,18.79
2019-05-19T11:55:32.624Z,18.95
2019-05-19T12:00:32.717Z,19.23
2019-05-19T12:05:33.103Z,18.80
2019-05-19T12:10:33.170Z,18.62
2019-05-19T12:20:32.156Z,18.23
2019-05-19T12:25:33.044Z,18.50
2019-05-19T12:30:43.667Z,18.01
2019-05-19T12:40:33.170Z,17.67
2019-05-19T12:50:33.169Z,17.27
2019-05-19T13:00:36.292Z,17.07
2019-05-19T13:10:33.297Z,16.88
2019-05-19T13:15:45.495Z,16.67
2019-05-19T13:20:33.056Z,16.53
2019-05-19T13:30:35.645Z,15.74
2019-05-19T13:40:33.057Z,15.54
2019-05-19T13:50:32.717Z,15.37
2019-05-19T14:00:33.940Z,15.15
2019-05-19T14:10:33.172Z,15.00
2019-05-19T14:20:33.103Z,14.85
2019-05-19T14:30:39.118Z,14.45
2019-05-19T14:40:33.170Z,14.13
2019-05-19T14:50:36.130Z,14.31
2019-05-19T15:00:33.742Z,13.10
2019-05-19T15:05:33.116Z,13.27
2019-05-19T15:10:32.684Z,12.96
2019-05-19T15:15:33.155Z,12.67
2019-05-19T15:20:32.202Z,12.23
2019-05-19T15:25:33.139Z,12.36
2019-05-19T15:30:43.186Z,12.39
2019-05-19T15:35:33.184Z,12.60
2019-05-19T15:40:33.123Z,12.72
2019-05-19T15:45:33.037Z,12.75
2019-05-19T15:50:32.202Z,12.77
2019-05-19T15:55:33.172Z,12.76
2019-05-19T16:00:33.645Z,12.97
2019-05-19T16:05:32.682Z,12.87
2019-05-19T16:10:33.560Z,13.14
2019-05-19T16:15:34.117Z,13.15
2019-05-19T16:20:33.150Z,13.12
2019-05-19T16:25:33.124Z,13.05
2019-05-19T16:30:35.543Z,13.29
2019-05-19T16:35:39.645Z,12.99
2019-05-19T16:40:33.049Z,13.03
2019-05-19T16:45:33.232Z,13.30
2019-05-19T16:50:32.650Z,13.17
2019-05-19T16:55:42.115Z,13.16
2019-05-19T17:00:34.248Z,13.07
2019-05-19T17:05:33.150Z,12.95
2019-05-19T17:10:33.271Z,13.12
2019-05-19T17:15:32.189Z,13.05
2019-05-19T17:20:33.725Z,13.04
2019-05-19T17:25:32.664Z,13.11
2019-05-19T17:30:33.207Z,13.12
2019-05-19T17:35:33.420Z,13.10
2019-05-19T17:40:32.794Z,13.26
2019-05-19T17:45:34.337Z,13.34
2019-05-19T17:50:34.781Z,13.36
2019-05-19T17:55:35.044Z,13.09
2019-05-19T18:00:37.100Z,13.13
2019-05-19T18:05:33.159Z,13.30
2019-05-19T18:10:33.748Z,13.28
2019-05-19T18:15:32.793Z,13.41
2019-05-19T18:20:33.410Z,13.54
2019-05-19T18:30:33.282Z,13.54
2019-05-19T18:40:33.276Z,13.65
2019-05-19T18:50:33.191Z,13.66
2019-05-19T19:00:35.760Z,13.01
2019-05-19T19:10:33.325Z,12.43
2019-05-19T19:20:33.216Z,12.32
2019-05-19T19:30:43.526Z,12.36
2019-05-19T19:40:33.485Z,12.34
2019-05-19T19:50:32.813Z,12.51
2019-05-19T20:00:39.991Z,12.68
2019-05-19T20:10:32.716Z,12.84
2019-05-19T20:20:33.294Z,12.84
2019-05-19T20:30:36.134Z,12.28
2019-05-19T20:40:32.788Z,12.31
2019-05-19T20:50:33.277Z,11.96
2019-05-19T21:00:33.939Z,12.23
2019-05-19T21:10:32.701Z,11.89
2019-05-19T21:20:33.051Z,12.22
2019-05-19T21:30:31.874Z,12.38
2019-05-19T21:40:33.115Z,12.64
2019-05-19T21:50:32.714Z,11.55
2019-05-19T22:00:34.384Z,11.64
2019-05-19T22:15:34.603Z,11.62
2019-05-19T22:30:38.621Z,11.66
2019-05-19T22:40:38.639Z,11.62
2019-05-19T22:50:32.719Z,11.68
2019-05-19T23:00:33.651Z,11.64
2019-05-19T23:15:33.245Z,11.52
2019-05-19T23:20:33.218Z,11.65
2019-05-19T23:30:30.609Z,11.31
2019-05-19T23:40:30.566Z,11.21
2019-05-19T23:50:30.570Z,11.27
